createdAt,value
2018-02-08T00:01:15.786Z,0.40
2018-02-08T00:03:43.518Z,0.40
2018-02-08T00:06:10.567Z,0.40
2018-02-08T00:08:37.618Z,0.40
2018-02-08T00:11:04.686Z,0.40
2018-02-08T00:13:31.742Z,0.40
2018-02-08T00:15:58.716Z,0.50
2018-02-08T00:18:25.767Z,0.50
2018-02-08T00:20:52.746Z,0.50
2018-02-08T00:23:20.627Z,0.60
2018-02-08T00:25:47.606Z,0.60
2018-02-08T00:28:14.579Z,0.60
2018-02-08T00:30:42.323Z,0.60
2018-02-08T00:33:09.295Z,0.60
2018-02-08T00:35:36.270Z,0.60
2018-02-08T00:38:04.087Z,0.60
2018-02-08T00:40:31.147Z,0.60
2018-02-08T00:42:58.123Z,0.60
2018-02-08T00:45:25.162Z,0.70
2018-02-08T00:47:52.222Z,0.70
2018-02-08T00:50:19.198Z,0.70
2018-02-08T00:52:46.238Z,0.80
2018-02-08T00:55:13.310Z,0.80
2018-02-08T00:57:40.467Z,0.80
2018-02-08T01:00:07.522Z,0.80
2018-02-08T01:02:34.593Z,0.80
2018-02-08T01:05:02.367Z,0.80
2018-02-08T01:07:29.472Z,0.80
2018-02-08T01:09:56.482Z,0.90
2018-02-08T01:12:23.458Z,0.90
2018-02-08T01:14:50.500Z,0.90
2018-02-08T01:17:17.475Z,0.90
2018-02-08T01:19:44.523Z,0.90
2018-02-08T01:22:11.575Z,0.90
2018-02-08T01:24:38.638Z,0.90
2018-02-08T01:27:05.616Z,0.90
2018-02-08T01:29:32.591Z,0.80
2018-02-08T01:31:59.558Z,0.80
2018-02-08T01:34:26.574Z,0.90
2018-02-08T01:36:53.551Z,0.80
2018-02-08T01:39:20.594Z,0.80
2018-02-08T01:41:47.654Z,0.90
2018-02-08T01:44:14.622Z,0.90
2018-02-08T01:46:41.600Z,0.90
2018-02-08T01:49:08.563Z,0.90
2018-02-08T01:51:35.538Z,0.90
2018-02-08T01:54:03.274Z,0.80
2018-02-08T01:56:30.323Z,0.80
2018-02-08T01:58:57.292Z,0.80
2018-02-08T02:01:24.261Z,0.80
2018-02-08T02:03:51.301Z,0.80
2018-02-08T02:06:18.354Z,0.90
2018-02-08T02:08:45.419Z,0.90
2018-02-08T02:11:12.478Z,0.90
2018-02-08T02:13:39.448Z,0.90
2018-02-08T02:16:06.422Z,0.90
2018-02-08T02:18:33.456Z,0.90
2018-02-08T02:21:00.434Z,0.90
2018-02-08T02:23:27.452Z,0.90
2018-02-08T02:25:55.246Z,0.90
2018-02-08T02:28:22.312Z,0.90
2018-02-08T02:30:49.286Z,0.90
2018-02-08T02:33:16.263Z,0.90
2018-02-08T02:35:43.271Z,0.90
2018-02-08T02:38:10.239Z,0.90
2018-02-08T02:40:37.206Z,0.90
2018-02-08T02:43:04.264Z,0.90
2018-02-08T02:45:31.235Z,0.90
2018-02-08T02:47:58.206Z,0.90
2018-02-08T02:50:25.195Z,0.90
2018-02-08T02:52:52.918Z,0.90
2018-02-08T02:55:19.891Z,0.90
2018-02-08T02:57:46.931Z,0.90
2018-02-08T03:00:13.905Z,0.90
2018-02-08T03:02:40.942Z,0.90
2018-02-08T03:05:08.002Z,0.90
2018-02-08T03:07:35.064Z,0.90
2018-02-08T03:10:02.163Z,0.90
2018-02-08T03:12:29.143Z,0.90
2018-02-08T03:14:56.967Z,0.90
2018-02-08T03:17:23.943Z,0.90
2018-02-08T03:19:50.908Z,0.90
2018-02-08T03:22:17.882Z,0.90
2018-02-08T03:24:44.850Z,0.90
2018-02-08T03:27:12.679Z,0.90
2018-02-08T03:29:39.647Z,0.90
2018-02-08T03:32:06.618Z,1.00
2018-02-08T03:34:33.655Z,0.90
2018-02-08T03:37:00.626Z,0.90
2018-02-08T03:39:27.674Z,0.90
2018-02-08T03:41:54.647Z,0.90
2018-02-08T03:44:21.715Z,0.90
2018-02-08T03:46:48.682Z,0.90
2018-02-08T03:49:15.654Z,0.90
2018-02-08T03:51:43.399Z,0.80
2018-02-08T03:54:10.543Z,0.80
2018-02-08T03:56:38.326Z,0.80
2018-02-08T03:59:05.383Z,0.70
2018-02-08T04:01:32.354Z,0.70
2018-02-08T04:03:59.403Z,0.60
2018-02-08T04:06:26.383Z,0.60
2018-02-08T04:08:53.360Z,0.60
2018-02-08T04:11:20.339Z,0.50
2018-02-08T04:13:48.074Z,0.50
2018-02-08T04:16:15.115Z,0.40
2018-02-08T04:18:42.178Z,0.40
2018-02-08T04:21:09.230Z,0.40
2018-02-08T04:23:36.294Z,0.40
2018-02-08T04:26:03.263Z,0.40
2018-02-08T04:28:30.243Z,0.30
2018-02-08T04:30:57.207Z,0.30
2018-02-08T04:33:24.186Z,0.30
2018-02-08T04:35:52.007Z,0.20
2018-02-08T04:38:36.638Z,0.20
2018-02-08T04:41:10.171Z,0.10
2018-02-08T04:43:42.998Z,0.10
2018-02-08T04:46:16.083Z,0.10
2018-02-08T04:48:43.063Z,0.10
2018-02-08T04:51:10.115Z,0.00
2018-02-08T04:53:37.088Z,0.00
2018-02-08T04:56:04.122Z,0.00
2018-02-08T04:58:31.102Z,0.00
2018-02-08T05:00:58.078Z,-0.10
2018-02-08T05:03:25.050Z,-0.10
2018-02-08T05:05:52.802Z,-0.20
2018-02-08T05:08:19.838Z,-0.20
2018-02-08T05:10:46.898Z,-0.20
2018-02-08T05:13:13.959Z,-0.20
2018-02-08T05:15:40.931Z,-0.30
2018-02-08T05:18:07.914Z,-0.30
2018-02-08T05:20:34.882Z,-0.30
2018-02-08T05:23:02.705Z,-0.40
2018-02-08T05:25:29.678Z,-0.40
2018-02-08T05:27:56.664Z,-0.40
2018-02-08T05:30:23.686Z,-0.40
2018-02-08T05:32:50.663Z,-0.40
2018-02-08T05:35:17.639Z,-0.50
2018-02-08T05:37:44.663Z,-0.50
2018-02-08T05:40:11.723Z,-0.50
2018-02-08T05:42:38.718Z,-0.50
2018-02-08T05:45:05.739Z,-0.60
2018-02-08T05:47:32.723Z,-0.60
2018-02-08T05:49:59.698Z,-0.60
2018-02-08T05:52:26.714Z,-0.60
2018-02-08T05:54:53.797Z,-0.60
2018-02-08T05:57:21.658Z,-0.60
2018-02-08T05:59:48.722Z,-0.60
2018-02-08T06:02:15.702Z,-0.60
2018-02-08T06:04:42.739Z,-0.60
2018-02-08T06:07:09.719Z,-0.60
2018-02-08T06:09:36.695Z,-0.60
2018-02-08T06:12:03.714Z,-0.60
2018-02-08T06:14:30.775Z,-0.60
2018-02-08T06:16:57.843Z,-0.60
2018-02-08T06:19:24.899Z,-0.60
2018-02-08T06:21:51.954Z,-0.60
2018-02-08T06:24:19.071Z,-0.60
2018-02-08T06:26:45.995Z,-0.60
2018-02-08T06:29:12.976Z,-0.60
2018-02-08T06:31:39.947Z,-0.60
2018-02-08T06:34:07.771Z,-0.60
2018-02-08T06:36:34.738Z,-0.60
2018-02-08T06:39:01.723Z,-0.60
2018-02-08T06:41:28.694Z,-0.60
2018-02-08T06:43:56.444Z,-0.60
2018-02-08T06:46:23.479Z,-0.70
2018-02-08T06:48:50.467Z,-0.70
2018-02-08T06:51:17.435Z,-0.70
2018-02-08T06:53:44.451Z,-0.70
2018-02-08T06:56:11.606Z,-0.70
2018-02-08T06:58:38.586Z,-0.80
2018-02-08T07:01:05.638Z,-0.80
2018-02-08T07:03:32.694Z,-0.80
2018-02-08T07:05:59.666Z,-0.80
2018-02-08T07:08:31.511Z,-0.80
2018-02-08T07:10:58.491Z,-0.80
2018-02-08T07:13:25.458Z,-0.80
2018-02-08T07:15:52.443Z,-0.80
2018-02-08T07:18:19.427Z,-0.80
2018-02-08T07:20:47.170Z,-0.80
2018-02-08T07:23:14.191Z,-0.80
2018-02-08T07:25:41.259Z,-0.80
2018-02-08T07:28:08.234Z,-0.80
2018-02-08T07:30:35.210Z,-0.80
2018-02-08T07:33:02.957Z,-0.80
2018-02-08T07:35:29.935Z,-0.80
2018-02-08T07:37:56.911Z,-0.80
2018-02-08T07:40:23.931Z,-0.80
2018-02-08T07:42:50.986Z,-0.80
2018-02-08T07:45:17.961Z,-0.80
2018-02-08T07:47:44.939Z,-0.80
2018-02-08T07:50:12.686Z,-0.80
2018-02-08T07:52:39.663Z,-0.80
2018-02-08T07:55:08.169Z,-0.70
2018-02-08T07:57:35.142Z,-0.70
2018-02-08T08:00:02.880Z,-0.70
2018-02-08T08:02:29.932Z,-0.70
2018-02-08T08:04:56.912Z,-0.70
2018-02-08T08:07:23.942Z,-0.60
2018-02-08T08:09:51.007Z,-0.60
2018-02-08T08:12:18.063Z,-0.60
2018-02-08T08:14:45.157Z,-0.60
2018-02-08T08:17:12.130Z,-0.50
2018-02-08T08:19:39.867Z,-0.40
2018-02-08T08:22:06.911Z,-0.50
2018-02-08T08:24:33.983Z,-0.40
2018-02-08T08:27:00.962Z,-0.30
2018-02-08T08:29:27.951Z,-0.30
2018-02-08T08:31:54.932Z,-0.20
2018-02-08T08:34:22.010Z,-0.20
2018-02-08T08:36:49.070Z,-0.10
2018-02-08T08:39:16.047Z,0.00
2018-02-08T08:41:43.015Z,0.10
2018-02-08T08:44:09.995Z,0.20
2018-02-08T08:46:37.827Z,0.30
2018-02-08T08:49:04.864Z,0.30
2018-02-08T08:51:32.803Z,0.30
2018-02-08T08:53:59.774Z,0.40
2018-02-08T08:56:27.587Z,0.60
2018-02-08T08:58:55.303Z,0.70
2018-02-08T09:01:22.271Z,0.60
2018-02-08T09:03:49.246Z,0.70
2018-02-08T09:06:16.978Z,0.80
2018-02-08T09:08:43.970Z,0.80
2018-02-08T09:11:10.943Z,0.90
2018-02-08T09:13:38.684Z,1.00
2018-02-08T09:16:05.718Z,1.00
2018-02-08T09:18:32.787Z,1.00
2018-02-08T09:20:59.760Z,1.10
2018-02-08T09:23:26.731Z,1.20
2018-02-08T09:25:53.705Z,1.30
2018-02-08T09:28:20.666Z,1.30
2018-02-08T09:30:48.490Z,1.50
2018-02-08T09:33:15.867Z,1.40
2018-02-08T09:35:42.923Z,1.50
2018-02-08T09:38:09.981Z,1.60
2018-02-08T09:40:37.046Z,1.60
2018-02-08T09:43:04.103Z,1.70
2018-02-08T09:45:31.160Z,1.80
2018-02-08T09:47:58.131Z,1.90
2018-02-08T09:50:25.110Z,2.00
2018-02-08T09:52:52.106Z,2.10
2018-02-08T09:55:19.092Z,2.10
2018-02-08T09:57:46.163Z,2.30
2018-02-08T10:00:13.219Z,2.30
2018-02-08T10:02:40.191Z,2.40
2018-02-08T10:05:07.163Z,2.60
2018-02-08T10:07:34.195Z,2.60
2018-02-08T10:10:01.258Z,2.70
2018-02-08T10:12:28.237Z,2.70
2018-02-08T10:14:55.275Z,2.80
2018-02-08T10:17:22.247Z,2.90
2018-02-08T10:19:49.218Z,3.00
2018-02-08T10:22:16.243Z,3.10
2018-02-08T10:24:43.208Z,3.20
2018-02-08T10:27:10.258Z,3.30
2018-02-08T10:29:37.318Z,3.40
2018-02-08T10:32:04.289Z,3.50
2018-02-08T10:34:31.266Z,3.60
2018-02-08T10:36:58.243Z,3.70
2018-02-08T10:39:25.210Z,3.70
2018-02-08T10:41:52.954Z,3.90
2018-02-08T10:44:19.996Z,3.90
2018-02-08T10:46:46.971Z,3.90
2018-02-08T10:49:14.026Z,4.00
2018-02-08T10:51:41.003Z,4.00
2018-02-08T10:54:07.970Z,4.00
2018-02-08T10:56:34.941Z,4.10
2018-02-08T10:59:02.748Z,4.20
2018-02-08T11:01:29.714Z,4.20
2018-02-08T11:03:56.701Z,4.20
2018-02-08T11:06:23.739Z,4.10
2018-02-08T11:08:50.714Z,4.10
2018-02-08T11:11:17.758Z,4.00
2018-02-08T11:13:44.735Z,4.00
2018-02-08T11:16:11.779Z,4.00
2018-02-08T11:18:38.755Z,4.00
2018-02-08T11:21:05.797Z,4.10
2018-02-08T11:23:32.771Z,4.20
2018-02-08T11:25:59.806Z,4.70
2018-02-08T11:28:26.787Z,5.30
2018-02-08T11:30:53.760Z,5.50
2018-02-08T11:33:20.786Z,5.50
2018-02-08T11:35:47.758Z,5.50
2018-02-08T11:38:14.802Z,5.30
2018-02-08T11:40:41.778Z,5.20
2018-02-08T11:43:08.750Z,5.20
2018-02-08T11:45:35.718Z,5.20
2018-02-08T11:48:02.766Z,5.40
2018-02-08T11:50:29.799Z,5.90
2018-02-08T11:52:56.766Z,6.10
2018-02-08T11:55:23.819Z,6.10
2018-02-08T11:57:50.876Z,5.90
2018-02-08T12:00:17.942Z,5.70
2018-02-08T12:02:45.005Z,5.60
2018-02-08T12:05:12.060Z,5.50
2018-02-08T12:07:39.122Z,5.70
2018-02-08T12:10:06.094Z,6.10
2018-02-08T12:12:33.066Z,6.40
2018-02-08T12:15:00.050Z,6.50
2018-02-08T12:17:27.774Z,6.30
2018-02-08T12:19:54.763Z,6.30
2018-02-08T12:22:21.787Z,6.20
2018-02-08T12:24:48.850Z,6.10
2018-02-08T12:27:15.826Z,5.80
2018-02-08T12:29:42.867Z,5.60
2018-02-08T12:32:09.849Z,5.60
2018-02-08T12:34:36.879Z,5.50
2018-02-08T12:37:03.859Z,5.50
2018-02-08T12:39:30.831Z,5.50
2018-02-08T12:41:57.862Z,5.70
2018-02-08T12:44:24.827Z,5.80
2018-02-08T12:46:51.802Z,6.00
2018-02-08T12:49:18.798Z,6.00
2018-02-08T12:51:45.779Z,6.10
2018-02-08T12:54:12.751Z,6.20
2018-02-08T12:56:39.942Z,6.40
2018-02-08T12:59:07.227Z,6.60
2018-02-08T13:01:34.982Z,6.70
2018-02-08T13:04:02.010Z,6.60
2018-02-08T13:06:28.986Z,6.70
2018-02-08T13:08:55.966Z,6.80
2018-02-08T13:11:22.995Z,7.00
2018-02-08T13:13:50.002Z,7.20
2018-02-08T13:16:17.015Z,7.50
2018-02-08T13:18:43.982Z,8.00
2018-02-08T13:21:10.963Z,8.20
2018-02-08T13:23:37.997Z,8.30
2018-02-08T13:26:04.962Z,8.60
2018-02-08T13:28:31.938Z,9.20
2018-02-08T13:30:58.916Z,9.60
2018-02-08T13:33:26.662Z,10.60
2018-02-08T13:35:53.634Z,10.50
2018-02-08T13:38:20.623Z,11.10
2018-02-08T13:40:49.121Z,11.70
2018-02-08T13:43:16.111Z,12.20
2018-02-08T13:45:43.086Z,12.10
2018-02-08T13:48:14.771Z,11.60
2018-02-08T13:50:55.474Z,10.70
2018-02-08T13:53:29.377Z,8.80
2018-02-08T13:55:59.212Z,8.70
2018-02-08T13:58:40.203Z,7.50
2018-02-08T14:01:08.870Z,7.50
2018-02-08T14:03:36.514Z,7.50
2018-02-08T14:06:03.482Z,7.90
2018-02-08T14:08:30.535Z,8.70
2018-02-08T14:10:57.599Z,9.40
2018-02-08T14:13:24.650Z,9.90
2018-02-08T14:15:51.643Z,10.20
2018-02-08T14:18:18.717Z,10.40
2018-02-08T14:20:45.678Z,10.60
2018-02-08T14:23:12.656Z,10.60
2018-02-08T14:25:40.405Z,10.00
2018-02-08T14:28:07.374Z,10.00
2018-02-08T14:30:35.202Z,8.70
2018-02-08T14:33:02.180Z,8.70
2018-02-08T14:35:29.159Z,8.20
2018-02-08T14:37:56.127Z,7.90
2018-02-08T14:40:23.138Z,7.50
2018-02-08T14:42:50.110Z,7.40
2018-02-08T14:45:17.086Z,7.20
2018-02-08T14:47:44.835Z,6.60
2018-02-08T14:50:11.893Z,6.60
2018-02-08T14:52:38.954Z,6.40
2018-02-08T14:55:05.923Z,6.20
2018-02-08T14:57:32.966Z,6.10
2018-02-08T14:59:59.938Z,6.00
2018-02-08T15:02:26.930Z,5.90
2018-02-08T15:04:53.900Z,5.80
2018-02-08T15:07:21.718Z,5.60
2018-02-08T15:09:48.691Z,5.50
2018-02-08T15:12:15.672Z,5.50
2018-02-08T15:14:42.638Z,5.40
2018-02-08T15:17:09.611Z,5.30
2018-02-08T15:19:37.347Z,5.00
2018-02-08T15:22:04.322Z,5.00
2018-02-08T15:24:31.295Z,4.90
2018-02-08T15:26:59.128Z,4.70
2018-02-08T15:29:26.098Z,4.70
2018-02-08T15:31:53.074Z,4.60
2018-02-08T15:34:20.042Z,4.50
2018-02-08T15:36:47.059Z,4.40
2018-02-08T15:39:14.031Z,4.30
2018-02-08T15:41:41.074Z,4.30
2018-02-08T15:44:08.134Z,4.10
2018-02-08T15:46:35.126Z,4.10
2018-02-08T15:49:02.098Z,4.00
2018-02-08T15:51:29.842Z,3.90
2018-02-08T15:53:56.891Z,3.90
2018-02-08T15:56:23.951Z,3.80
2018-02-08T15:58:51.011Z,3.70
2018-02-08T16:01:18.070Z,3.70
2018-02-08T16:03:45.049Z,3.60
2018-02-08T16:06:12.027Z,3.60
2018-02-08T16:08:38.995Z,3.50
2018-02-08T16:11:06.890Z,3.40
2018-02-08T16:13:33.815Z,3.40
2018-02-08T16:16:00.795Z,3.30
2018-02-08T16:18:28.618Z,3.20
2018-02-08T16:20:55.595Z,3.20
2018-02-08T16:23:22.648Z,3.10
2018-02-08T16:25:49.622Z,3.00
2018-02-08T16:28:16.650Z,3.00
2018-02-08T16:30:43.715Z,2.90
2018-02-08T16:33:10.879Z,2.90
2018-02-08T16:35:37.862Z,2.80
2018-02-08T16:38:04.822Z,2.70
2018-02-08T16:40:31.803Z,2.70
2018-02-08T16:42:59.543Z,2.50
2018-02-08T16:45:26.591Z,2.50
2018-02-08T16:47:53.562Z,2.40
2018-02-08T16:50:20.539Z,2.40
2018-02-08T16:52:47.507Z,2.30
2018-02-08T16:55:14.488Z,2.30
2018-02-08T16:57:41.459Z,2.20
2018-02-08T17:00:09.027Z,2.10
2018-02-08T17:02:36.734Z,1.90
2018-02-08T17:05:03.715Z,1.90
2018-02-08T17:07:30.683Z,1.90
2018-02-08T17:09:57.659Z,1.80
2018-02-08T17:12:25.478Z,1.70
2018-02-08T17:14:52.535Z,1.70
2018-02-08T17:17:19.506Z,1.70
2018-02-08T17:19:46.483Z,1.70
2018-02-08T17:22:13.451Z,1.60
2018-02-08T17:24:40.470Z,1.60
2018-02-08T17:27:07.530Z,1.60
2018-02-08T17:29:34.499Z,1.50
2018-02-08T17:32:01.579Z,1.40
2018-02-08T17:34:28.598Z,1.40
2018-02-08T17:36:56.196Z,1.30
2018-02-08T17:39:23.438Z,1.30
2018-02-08T17:41:51.238Z,1.30
2018-02-08T17:44:19.090Z,1.30
2018-02-08T17:46:46.135Z,1.30
2018-02-08T17:49:13.122Z,1.20
2018-02-08T17:51:40.183Z,1.20
2018-02-08T17:54:07.152Z,1.20
2018-02-08T17:56:34.214Z,1.10
2018-02-08T17:59:02.464Z,1.10
2018-02-08T18:01:30.287Z,1.10
2018-02-08T18:03:57.520Z,1.10
2018-02-08T18:06:25.310Z,1.00
2018-02-08T18:08:53.087Z,1.00
2018-02-08T18:11:20.931Z,1.00
2018-02-08T18:13:49.911Z,1.00
2018-02-08T18:16:17.762Z,0.90
2018-02-08T18:18:45.837Z,0.90
2018-02-08T18:21:12.891Z,0.90
2018-02-08T18:23:39.891Z,0.90
2018-02-08T18:26:06.912Z,0.80
2018-02-08T18:28:34.850Z,0.80
2018-02-08T18:31:02.255Z,0.80
2018-02-08T18:33:30.927Z,0.80
2018-02-08T18:35:58.071Z,0.80
2018-02-08T18:38:25.957Z,0.70
2018-02-08T18:40:53.700Z,0.70
2018-02-08T18:43:22.262Z,0.70
2018-02-08T18:45:49.214Z,0.70
2018-02-08T18:48:16.217Z,0.70
2018-02-08T18:50:43.202Z,0.70
2018-02-08T18:53:11.580Z,0.60
2018-02-08T18:55:40.111Z,0.50
2018-02-08T18:58:07.135Z,0.50
2018-02-08T19:00:35.461Z,0.50
2018-02-08T19:03:03.294Z,0.50
2018-02-08T19:05:30.376Z,0.40
2018-02-08T19:07:59.282Z,0.40
2018-02-08T19:10:26.379Z,0.30
2018-02-08T19:12:53.726Z,0.30
2018-02-08T19:15:21.539Z,0.20
2018-02-08T19:17:48.646Z,0.20
2018-02-08T19:20:16.657Z,0.20
2018-02-08T19:22:44.467Z,0.20
2018-02-08T19:25:12.171Z,0.10
2018-02-08T19:27:39.970Z,0.10
2018-02-08T19:30:07.695Z,0.10
2018-02-08T19:32:34.703Z,0.10
2018-02-08T19:35:03.054Z,0.00
2018-02-08T19:37:30.186Z,0.00
2018-02-08T19:39:57.454Z,0.10
2018-02-08T19:42:24.487Z,0.00
2018-02-08T19:44:52.323Z,0.00
2018-02-08T19:47:20.823Z,-0.10
2018-02-08T19:49:48.355Z,-0.10
2018-02-08T19:52:15.392Z,-0.10
2018-02-08T19:54:43.208Z,-0.10
2018-02-08T19:57:10.174Z,-0.20
2018-02-08T19:59:37.151Z,-0.20
2018-02-08T20:02:04.176Z,-0.20
2018-02-08T20:04:31.176Z,-0.20
2018-02-08T20:06:58.190Z,-0.20
2018-02-08T20:09:25.163Z,-0.20
2018-02-08T20:11:52.215Z,-0.20
2018-02-08T20:14:25.019Z,-0.30
2018-02-08T20:16:51.998Z,-0.30
2018-02-08T20:19:18.978Z,-0.40
2018-02-08T20:21:46.733Z,-0.40
2018-02-08T20:24:13.704Z,-0.50
2018-02-08T20:26:40.737Z,-0.50
2018-02-08T20:29:07.702Z,-0.50
2018-02-08T20:31:34.690Z,-0.50
2018-02-08T20:34:02.513Z,-0.60
2018-02-08T20:36:29.498Z,-0.60
2018-02-08T20:38:56.470Z,-0.60
2018-02-08T20:41:24.219Z,-0.60
2018-02-08T20:43:51.194Z,-0.60
2018-02-08T20:46:18.179Z,-0.60
2018-02-08T20:48:46.002Z,-0.60
2018-02-08T20:51:12.979Z,-0.70
2018-02-08T20:53:39.951Z,-0.70
2018-02-08T20:56:06.930Z,-0.70
2018-02-08T20:58:34.671Z,-0.70
2018-02-08T21:01:01.654Z,-0.70
2018-02-08T21:03:28.675Z,-0.70
2018-02-08T21:05:55.666Z,-0.70
2018-02-08T21:08:22.643Z,-0.70
2018-02-08T21:10:50.459Z,-0.80
2018-02-08T21:13:17.446Z,-0.80
2018-02-08T21:15:44.478Z,-0.80
2018-02-08T21:18:11.565Z,-0.80
2018-02-08T21:20:38.514Z,-0.80
2018-02-08T21:23:05.505Z,-0.80
2018-02-08T21:25:32.510Z,-0.80
2018-02-08T21:27:59.490Z,-0.80
2018-02-08T21:30:26.531Z,-0.80
2018-02-08T21:32:53.511Z,-0.80
2018-02-08T21:35:20.490Z,-0.90
2018-02-08T21:37:47.479Z,-0.90
2018-02-08T21:40:15.231Z,-1.00
2018-02-08T21:42:42.207Z,-1.00
2018-02-08T21:45:09.994Z,-1.00
2018-02-08T21:47:36.979Z,-1.10
2018-02-08T21:50:03.954Z,-1.10
2018-02-08T21:52:30.930Z,-1.20
2018-02-08T21:54:58.672Z,-1.20
2018-02-08T21:57:25.737Z,-1.30
2018-02-08T21:59:52.703Z,-1.20
2018-02-08T22:02:19.686Z,-1.20
2018-02-08T22:04:46.663Z,-1.30
2018-02-08T22:07:14.490Z,-1.30
2018-02-08T22:09:41.471Z,-1.40
2018-02-08T22:12:08.447Z,-1.40
2018-02-08T22:14:35.520Z,-1.40
2018-02-08T22:17:02.466Z,-1.40
2018-02-08T22:19:29.439Z,-1.40
2018-02-08T22:21:57.174Z,-1.40
2018-02-08T22:24:24.223Z,-1.40
2018-02-08T22:26:51.200Z,-1.40
2018-02-08T22:29:18.235Z,-1.40
2018-02-08T22:31:45.211Z,-1.40
2018-02-08T22:34:12.190Z,-1.50
2018-02-08T22:36:39.212Z,-1.50
2018-02-08T22:39:06.271Z,-1.60
2018-02-08T22:41:33.242Z,-1.60
2018-02-08T22:44:00.227Z,-1.60
2018-02-08T22:46:27.247Z,-1.60
2018-02-08T22:48:54.230Z,-1.60
2018-02-08T22:51:21.206Z,-1.60
2018-02-08T22:53:48.222Z,-1.60
2018-02-08T22:56:15.282Z,-1.50
2018-02-08T22:58:42.254Z,-1.50
2018-02-08T23:01:09.234Z,-1.50
2018-02-08T23:03:37.719Z,-1.60
2018-02-08T23:06:04.704Z,-1.60
2018-02-08T23:08:32.531Z,-1.50
2018-02-08T23:10:59.518Z,-1.50
2018-02-08T23:13:26.496Z,-1.50
2018-02-08T23:15:54.239Z,-1.50
2018-02-08T23:18:21.284Z,-1.50
2018-02-08T23:20:48.258Z,-1.50
2018-02-08T23:23:15.299Z,-1.50
2018-02-08T23:25:42.282Z,-1.50
2018-02-08T23:28:09.318Z,-1.50
2018-02-08T23:30:36.374Z,-1.50
2018-02-08T23:33:03.439Z,-1.50
2018-02-08T23:35:30.498Z,-1.50
2018-02-08T23:37:57.558Z,-1.50
2018-02-08T23:40:24.619Z,-1.50
2018-02-08T23:42:51.679Z,-1.50
2018-02-08T23:45:18.838Z,-1.50
2018-02-08T23:47:45.818Z,-1.50
2018-02-08T23:50:12.870Z,-1.50
2018-02-08T23:52:39.923Z,-1.50
2018-02-08T23:55:06.986Z,-1.60
2018-02-08T23:57:34.039Z,-1.60
